createdAt,value
2022-08-02T00:00:41.592Z,50.32
2022-08-02T00:01:40.856Z,50.32
2022-08-02T00:02:40.943Z,50.22
2022-08-02T00:03:41.144Z,50.22
2022-08-02T00:04:41.294Z,50.32
2022-08-02T00:05:41.511Z,50.32
2022-08-02T00:06:41.675Z,50.42
2022-08-02T00:07:41.841Z,50.12
2022-08-02T00:08:42.004Z,50.02
2022-08-02T00:09:42.164Z,50.32
2022-08-02T00:10:42.334Z,50.12
2022-08-02T00:11:43.208Z,50.02
2022-08-02T00:12:42.674Z,49.92
2022-08-02T00:13:42.833Z,50.12
2022-08-02T00:14:42.994Z,49.92
2022-08-02T00:15:43.178Z,49.92
2022-08-02T00:16:43.334Z,50.02
2022-08-02T00:17:43.526Z,50.02
2022-08-02T00:18:43.684Z,50.02
2022-08-02T00:19:43.851Z,49.82
2022-08-02T00:20:44.024Z,49.82
2022-08-02T00:21:44.185Z,49.85
2022-08-02T00:22:44.346Z,49.85
2022-08-02T00:24:27.535Z,50.04
2022-08-02T00:24:45.707Z,49.82
2022-08-02T00:25:55.431Z,49.82
2022-08-02T00:26:46.015Z,49.92
2022-08-02T00:27:45.205Z,49.82
2022-08-02T00:28:45.357Z,49.74
2022-08-02T00:29:53.041Z,49.65
2022-08-02T00:30:46.766Z,49.82
2022-08-02T00:31:45.914Z,49.72
2022-08-02T00:32:46.066Z,49.82
2022-08-02T00:34:05.650Z,49.85
2022-08-02T00:34:47.417Z,49.72
2022-08-02T00:35:46.606Z,49.85
2022-08-02T00:36:46.769Z,49.85
2022-08-02T00:37:46.937Z,49.95
2022-08-02T00:38:47.087Z,49.92
2022-08-02T00:39:47.245Z,50.12
2022-08-02T00:40:47.436Z,50.22
2022-08-02T00:41:47.597Z,49.95
2022-08-02T00:42:47.757Z,50.04
2022-08-02T00:43:47.919Z,49.95
2022-08-02T00:44:48.082Z,49.95
2022-08-02T00:46:02.119Z,49.95
2022-08-02T00:46:49.430Z,50.04
2022-08-02T00:47:48.617Z,50.04
2022-08-02T00:48:48.778Z,50.15
2022-08-02T00:49:48.967Z,50.04
2022-08-02T00:50:49.157Z,50.15
2022-08-02T00:51:49.315Z,49.95
2022-08-02T00:52:49.458Z,50.24
2022-08-02T00:53:49.618Z,50.15
2022-08-02T00:54:49.778Z,50.15
2022-08-02T00:55:49.978Z,50.45
2022-08-02T00:56:51.204Z,50.35
2022-08-02T00:57:50.328Z,50.45
2022-08-02T00:58:50.488Z,50.35
2022-08-02T00:59:50.648Z,50.35
2022-08-02T01:00:50.829Z,50.35
2022-08-02T01:01:56.406Z,50.54
2022-08-02T01:02:52.167Z,50.74
2022-08-02T01:03:51.348Z,50.45
2022-08-02T01:04:51.537Z,50.45
2022-08-02T01:06:10.205Z,50.45
2022-08-02T01:06:52.868Z,50.45
2022-08-02T01:07:52.045Z,50.54
2022-08-02T01:08:52.238Z,50.45
2022-08-02T01:09:52.399Z,50.65
2022-08-02T01:10:52.618Z,50.45
2022-08-02T01:11:52.777Z,50.45
2022-08-02T01:12:52.937Z,50.45
2022-08-02T01:13:53.097Z,50.65
2022-08-02T01:14:53.289Z,50.65
2022-08-02T01:15:53.469Z,50.54
2022-08-02T01:16:53.635Z,50.45
2022-08-02T01:17:53.789Z,50.54
2022-08-02T01:18:53.988Z,50.54
2022-08-02T01:19:54.138Z,50.65
2022-08-02T01:20:54.349Z,50.74
2022-08-02T01:21:54.523Z,50.45
2022-08-02T01:23:02.757Z,50.65
2022-08-02T01:23:55.859Z,50.54
2022-08-02T01:24:55.039Z,50.45
2022-08-02T01:25:55.249Z,50.54
2022-08-02T01:26:55.371Z,50.54
2022-08-02T01:27:55.560Z,50.74
2022-08-02T01:28:55.749Z,50.74
2022-08-02T01:29:55.913Z,50.84
2022-08-02T01:30:56.119Z,50.65
2022-08-02T01:31:56.280Z,50.84
2022-08-02T01:32:56.439Z,50.84
2022-08-02T01:33:56.600Z,50.95
2022-08-02T01:34:56.759Z,50.84
2022-08-02T01:35:56.942Z,50.84
2022-08-02T01:36:57.111Z,51.04
2022-08-02T01:37:57.260Z,50.95
2022-08-02T01:38:57.469Z,50.95
2022-08-02T01:39:57.620Z,50.95
2022-08-02T01:40:57.828Z,50.84
2022-08-02T01:41:58.102Z,50.95
2022-08-02T01:42:58.150Z,50.95
2022-08-02T01:43:58.309Z,50.87
2022-08-02T01:44:58.501Z,51.07
2022-08-02T01:45:58.671Z,51.17
2022-08-02T01:46:58.833Z,51.07
2022-08-02T01:47:58.980Z,51.27
2022-08-02T01:48:59.198Z,51.47
2022-08-02T01:49:59.360Z,51.47
2022-08-02T01:50:59.551Z,51.47
2022-08-02T01:51:59.711Z,51.57
2022-08-02T01:52:59.873Z,51.57
2022-08-02T01:54:00.035Z,51.47
2022-08-02T01:55:00.220Z,51.67
2022-08-02T01:56:00.391Z,51.67
2022-08-02T01:57:00.564Z,51.87
2022-08-02T01:58:00.711Z,51.47
2022-08-02T01:59:00.902Z,51.47
2022-08-02T02:00:01.519Z,51.47
2022-08-02T02:01:01.303Z,51.77
2022-08-02T02:02:01.414Z,51.67
2022-08-02T02:03:01.575Z,51.77
2022-08-02T02:04:01.753Z,51.77
2022-08-02T02:05:01.949Z,51.87
2022-08-02T02:06:02.150Z,51.67
2022-08-02T02:07:02.307Z,51.77
2022-08-02T02:08:02.482Z,51.97
2022-08-02T02:09:02.649Z,51.87
2022-08-02T02:10:02.804Z,51.67
2022-08-02T02:12:11.451Z,51.77
2022-08-02T02:12:13.555Z,51.77
2022-08-02T02:13:04.316Z,51.97
2022-08-02T02:14:03.493Z,51.87
2022-08-02T02:15:03.692Z,51.87
2022-08-02T02:16:03.902Z,52.17
2022-08-02T02:17:04.064Z,51.87
2022-08-02T02:18:11.294Z,52.17
2022-08-02T02:19:05.403Z,52.00
2022-08-02T02:20:04.593Z,52.19
2022-08-02T02:21:04.763Z,52.29
2022-08-02T02:22:04.923Z,52.19
2022-08-02T02:23:05.112Z,52.09
2022-08-02T02:24:06.546Z,52.29
2022-08-02T02:25:06.630Z,52.09
2022-08-02T02:26:05.662Z,52.09
2022-08-02T02:27:05.823Z,52.29
2022-08-02T02:28:05.974Z,52.39
2022-08-02T02:29:06.175Z,52.42
2022-08-02T02:30:06.333Z,52.62
2022-08-02T02:31:06.507Z,52.62
2022-08-02T02:32:06.675Z,52.82
2022-08-02T02:33:06.866Z,52.72
2022-08-02T02:34:07.025Z,53.05
2022-08-02T02:35:07.184Z,53.14
2022-08-02T02:36:07.363Z,53.34
2022-08-02T02:37:07.523Z,53.37
2022-08-02T02:38:07.674Z,53.67
2022-08-02T02:39:13.047Z,53.77
2022-08-02T02:40:09.048Z,53.97
2022-08-02T02:41:08.246Z,53.87
2022-08-02T02:42:08.812Z,53.97
2022-08-02T02:43:08.575Z,54.39
2022-08-02T02:44:08.736Z,54.30
2022-08-02T02:45:08.927Z,54.20
2022-08-02T02:46:09.098Z,54.50
2022-08-02T02:47:09.269Z,54.80
2022-08-02T02:48:09.416Z,54.80
2022-08-02T02:49:09.638Z,55.10
2022-08-02T02:50:09.806Z,55.22
2022-08-02T02:51:14.332Z,55.22
2022-08-02T02:52:10.454Z,55.22
2022-08-02T02:53:10.341Z,55.22
2022-08-02T02:54:30.060Z,55.43
2022-08-02T02:55:11.668Z,55.52
2022-08-02T02:56:10.867Z,55.63
2022-08-02T02:57:11.023Z,55.52
2022-08-02T02:58:11.206Z,55.22
2022-08-02T02:59:11.399Z,55.43
2022-08-02T03:00:11.554Z,55.32
2022-08-02T03:01:11.788Z,55.52
2022-08-02T03:02:12.194Z,55.32
2022-08-02T03:03:12.099Z,55.52
2022-08-02T03:04:12.304Z,55.43
2022-08-02T03:05:12.427Z,55.43
2022-08-02T03:06:15.316Z,55.22
2022-08-02T03:07:12.777Z,55.40
2022-08-02T03:08:12.948Z,55.30
2022-08-02T03:09:13.126Z,55.60
2022-08-02T03:10:13.307Z,55.20
2022-08-02T03:11:13.507Z,55.30
2022-08-02T03:12:13.841Z,55.40
2022-08-02T03:13:13.827Z,55.40
2022-08-02T03:14:13.999Z,55.20
2022-08-02T03:15:14.189Z,55.40
2022-08-02T03:16:14.382Z,55.10
2022-08-02T03:17:14.528Z,55.40
2022-08-02T03:18:14.708Z,55.20
2022-08-02T03:19:14.881Z,55.20
2022-08-02T03:20:15.064Z,55.30
2022-08-02T03:21:15.260Z,55.20
2022-08-02T03:22:15.456Z,55.10
2022-08-02T03:23:15.569Z,55.20
2022-08-02T03:24:15.749Z,55.30
2022-08-02T03:25:16.924Z,55.30
2022-08-02T03:26:16.088Z,55.40
2022-08-02T03:27:16.238Z,55.30
2022-08-02T03:28:16.398Z,55.60
2022-08-02T03:29:16.560Z,55.20
2022-08-02T03:30:16.739Z,55.30
2022-08-02T03:31:16.936Z,55.30
2022-08-02T03:32:17.070Z,55.50
2022-08-02T03:33:17.259Z,55.40
2022-08-02T03:34:17.439Z,55.30
2022-08-02T03:35:22.926Z,55.40
2022-08-02T03:36:18.811Z,55.30
2022-08-02T03:37:17.959Z,55.10
2022-08-02T03:38:18.149Z,55.20
2022-08-02T03:39:18.340Z,55.10
2022-08-02T03:40:18.530Z,55.20
2022-08-02T03:41:18.738Z,55.30
2022-08-02T03:42:18.879Z,55.20
2022-08-02T03:43:19.059Z,55.00
2022-08-02T03:44:19.249Z,55.10
2022-08-02T03:45:19.440Z,55.00
2022-08-02T03:46:19.821Z,54.80
2022-08-02T03:47:19.820Z,54.80
2022-08-02T03:48:33.819Z,55.00
2022-08-02T03:49:21.207Z,55.22
2022-08-02T03:50:20.301Z,55.22
2022-08-02T03:51:20.519Z,55.32
2022-08-02T03:52:20.651Z,55.52
2022-08-02T03:53:20.840Z,55.22
2022-08-02T03:54:20.993Z,55.32
2022-08-02T03:55:21.183Z,55.22
2022-08-02T03:56:23.447Z,55.32
2022-08-02T03:57:21.503Z,55.13
2022-08-02T03:58:21.660Z,55.13
2022-08-02T03:59:21.821Z,55.13
2022-08-02T04:00:21.980Z,55.13
2022-08-02T04:01:22.232Z,54.93
2022-08-02T04:02:22.311Z,55.02
2022-08-02T04:03:22.471Z,55.13
2022-08-02T04:04:22.632Z,55.02
2022-08-02T04:05:22.800Z,55.32
2022-08-02T04:06:27.246Z,54.93
2022-08-02T04:08:02.524Z,55.02
2022-08-02T04:08:37.079Z,54.93
2022-08-02T04:09:24.521Z,55.02
2022-08-02T04:10:23.701Z,55.02
2022-08-02T04:11:23.918Z,54.93
2022-08-02T04:12:24.044Z,54.62
2022-08-02T04:13:27.449Z,55.02
2022-08-02T04:14:25.383Z,55.13
2022-08-02T04:15:24.572Z,55.22
2022-08-02T04:16:24.752Z,55.22
2022-08-02T04:17:24.982Z,55.22
2022-08-02T04:18:25.120Z,55.13
2022-08-02T04:19:25.306Z,55.32
2022-08-02T04:20:25.475Z,55.13
2022-08-02T04:21:25.652Z,55.20
2022-08-02T04:22:25.804Z,55.20
2022-08-02T04:23:25.993Z,55.00
2022-08-02T04:24:26.156Z,54.80
2022-08-02T04:25:35.608Z,54.70
2022-08-02T04:26:28.491Z,54.70
2022-08-02T04:27:51.096Z,54.80
2022-08-02T04:28:29.126Z,54.80
2022-08-02T04:29:27.012Z,54.57
2022-08-02T04:30:27.208Z,54.57
2022-08-02T04:31:27.355Z,54.57
2022-08-02T04:32:27.549Z,54.37
2022-08-02T04:33:27.695Z,54.37
2022-08-02T04:34:27.874Z,54.05
2022-08-02T04:35:28.062Z,54.35
2022-08-02T04:36:31.652Z,54.24
2022-08-02T04:37:28.433Z,53.94
2022-08-02T04:38:28.576Z,53.94
2022-08-02T04:39:28.753Z,54.05
2022-08-02T04:40:28.933Z,54.14
2022-08-02T04:41:29.121Z,53.85
2022-08-02T04:42:29.314Z,53.74
2022-08-02T04:43:29.466Z,53.85
2022-08-02T04:44:29.647Z,53.94
2022-08-02T04:45:29.825Z,53.74
2022-08-02T04:46:30.015Z,53.85
2022-08-02T04:48:02.451Z,53.55
2022-08-02T04:48:31.344Z,53.74
2022-08-02T04:49:30.587Z,53.74
2022-08-02T04:50:30.719Z,53.74
2022-08-02T04:51:38.190Z,53.74
2022-08-02T04:52:32.063Z,53.74
2022-08-02T04:53:31.223Z,53.85
2022-08-02T04:54:31.405Z,54.05
2022-08-02T04:55:31.588Z,54.35
2022-08-02T04:56:31.766Z,53.94
2022-08-02T04:57:31.966Z,53.85
2022-08-02T04:58:40.646Z,53.74
2022-08-02T04:59:33.276Z,53.55
2022-08-02T05:00:32.739Z,53.62
2022-08-02T05:01:32.634Z,53.82
2022-08-02T05:02:32.830Z,54.42
2022-08-02T05:03:32.973Z,54.02
2022-08-02T05:04:33.148Z,53.32
2022-08-02T05:05:33.327Z,53.22
2022-08-02T05:06:33.506Z,53.22
2022-08-02T05:07:35.996Z,53.72
2022-08-02T05:08:33.847Z,53.72
2022-08-02T05:09:34.037Z,53.52
2022-08-02T05:10:34.216Z,53.82
2022-08-02T05:11:36.713Z,53.62
2022-08-02T05:12:34.575Z,53.82
2022-08-02T05:13:34.717Z,54.02
2022-08-02T05:14:35.906Z,54.02
2022-08-02T05:15:35.099Z,53.42
2022-08-02T05:16:35.277Z,53.42
2022-08-02T05:17:35.477Z,53.12
2022-08-02T05:18:35.628Z,52.92
2022-08-02T05:19:35.807Z,52.89
2022-08-02T05:20:35.987Z,52.99
2022-08-02T05:21:36.167Z,53.79
2022-08-02T05:22:36.370Z,53.30
2022-08-02T05:23:36.535Z,52.49
2022-08-02T05:24:36.717Z,52.37
2022-08-02T05:25:36.896Z,52.57
2022-08-02T05:26:37.077Z,52.47
2022-08-02T05:27:37.267Z,52.55
2022-08-02T05:28:37.429Z,52.22
2022-08-02T05:29:37.588Z,51.20
2022-08-02T05:30:37.762Z,50.55
2022-08-02T05:31:37.929Z,49.21
2022-08-02T05:32:38.108Z,47.89
2022-08-02T05:33:38.258Z,47.05
2022-08-02T05:34:38.429Z,46.92
2022-08-02T05:35:38.596Z,45.98
2022-08-02T05:36:38.772Z,45.17
2022-08-02T05:37:38.945Z,44.65
2022-08-02T05:38:39.131Z,43.74
2022-08-02T05:39:39.288Z,43.12
2022-08-02T05:40:54.285Z,42.80
2022-08-02T05:41:40.612Z,42.58
2022-08-02T05:42:39.816Z,42.35
2022-08-02T05:43:39.990Z,41.44
2022-08-02T05:44:40.171Z,41.12
2022-08-02T05:45:40.349Z,40.31
2022-08-02T05:46:40.522Z,40.29
2022-08-02T05:47:40.710Z,39.86
2022-08-02T05:48:40.891Z,38.75
2022-08-02T05:49:41.155Z,38.34
2022-08-02T05:50:41.253Z,38.62
2022-08-02T05:51:41.412Z,37.51
2022-08-02T05:52:41.609Z,37.51
2022-08-02T05:53:41.761Z,37.41
2022-08-02T05:54:41.952Z,37.02
2022-08-02T05:55:42.122Z,36.61
2022-08-02T05:56:42.312Z,35.80
2022-08-02T05:57:43.689Z,36.40
2022-08-02T05:58:42.680Z,36.18
2022-08-02T05:59:42.833Z,35.78
2022-08-02T06:00:43.002Z,35.87
2022-08-02T06:01:43.223Z,35.47
2022-08-02T06:02:43.373Z,35.36
2022-08-02T06:03:43.513Z,35.14
2022-08-02T06:04:43.703Z,34.72
2022-08-02T06:05:43.873Z,34.31
2022-08-02T06:06:44.063Z,33.90
2022-08-02T06:07:44.254Z,33.59
2022-08-02T06:08:47.523Z,32.70
2022-08-02T06:09:44.604Z,32.19
2022-08-02T06:10:44.795Z,32.37
2022-08-02T06:12:00.766Z,32.16
2022-08-02T06:12:46.164Z,31.16
2022-08-02T06:13:45.326Z,30.29
2022-08-02T06:14:45.507Z,30.48
2022-08-02T06:15:53.336Z,30.58
2022-08-02T06:16:46.846Z,30.18
2022-08-02T06:17:46.038Z,30.29
2022-08-02T06:18:46.213Z,30.19
2022-08-02T06:19:51.541Z,30.20
2022-08-02T06:20:47.556Z,30.69
2022-08-02T06:22:33.962Z,30.87
2022-08-02T06:22:48.151Z,30.68
2022-08-02T06:23:57.692Z,30.18
2022-08-02T06:24:48.268Z,29.77
2022-08-02T06:25:50.144Z,28.99
2022-08-02T06:26:47.627Z,28.97
2022-08-02T06:27:47.809Z,28.68
2022-08-02T06:28:47.988Z,28.86
2022-08-02T06:29:48.168Z,28.75
2022-08-02T06:30:48.349Z,28.55
2022-08-02T06:31:48.520Z,28.25
2022-08-02T06:32:48.730Z,27.95
2022-08-02T06:33:48.890Z,28.26
2022-08-02T06:34:49.082Z,28.26
2022-08-02T06:35:49.250Z,28.36
2022-08-02T06:36:49.480Z,28.45
2022-08-02T06:37:49.630Z,28.85
2022-08-02T06:38:50.888Z,28.55
2022-08-02T06:39:49.961Z,28.75
2022-08-02T06:40:50.159Z,28.75
2022-08-02T06:41:50.331Z,29.33
2022-08-02T06:42:50.534Z,28.74
2022-08-02T06:43:50.673Z,27.86
2022-08-02T06:44:55.559Z,27.66
2022-08-02T06:45:52.043Z,28.64
2022-08-02T06:47:11.530Z,27.76
2022-08-02T06:47:52.424Z,27.66
2022-08-02T06:48:51.621Z,27.65
2022-08-02T06:49:54.239Z,27.84
2022-08-02T06:50:51.920Z,28.22
2022-08-02T06:51:52.093Z,27.93
2022-08-02T06:52:52.304Z,27.34
2022-08-02T06:53:52.463Z,27.25
2022-08-02T06:54:52.642Z,27.55
2022-08-02T06:55:52.815Z,28.34
2022-08-02T06:56:52.995Z,27.86
2022-08-02T06:57:53.884Z,27.86
2022-08-02T06:58:53.356Z,27.86
2022-08-02T06:59:53.546Z,27.66
2022-08-02T07:00:53.708Z,28.05
2022-08-02T07:01:53.945Z,28.43
2022-08-02T07:02:54.058Z,28.23
2022-08-02T07:03:54.237Z,27.93
2022-08-02T07:04:54.415Z,28.11
2022-08-02T07:05:54.587Z,27.61
2022-08-02T07:06:54.768Z,27.21
2022-08-02T07:07:54.960Z,27.10
2022-08-02T07:09:19.401Z,27.08
2022-08-02T07:10:00.741Z,26.31
2022-08-02T07:10:56.479Z,25.90
2022-08-02T07:11:55.658Z,26.39
2022-08-02T07:12:59.619Z,25.71
2022-08-02T07:13:56.029Z,26.21
2022-08-02T07:14:56.207Z,26.12
2022-08-02T07:15:56.380Z,26.92
2022-08-02T07:16:56.558Z,27.32
2022-08-02T07:17:56.741Z,27.80
2022-08-02T07:18:56.880Z,27.11
2022-08-02T07:19:57.068Z,26.72
2022-08-02T07:20:57.241Z,26.42
2022-08-02T07:22:01.756Z,25.82
2022-08-02T07:22:57.612Z,25.82
2022-08-02T07:23:57.752Z,25.42
2022-08-02T07:24:57.921Z,25.81
2022-08-02T07:26:02.882Z,25.52
2022-08-02T07:27:11.367Z,25.60
2022-08-02T07:27:59.459Z,25.99
2022-08-02T07:28:58.619Z,25.89
2022-08-02T07:29:58.800Z,25.60
2022-08-02T07:30:58.975Z,25.71
2022-08-02T07:31:59.152Z,25.81
2022-08-02T07:32:59.353Z,26.31
2022-08-02T07:33:59.495Z,26.40
2022-08-02T07:34:59.675Z,26.70
2022-08-02T07:35:59.834Z,26.29
2022-08-02T07:37:01.023Z,25.89
2022-08-02T07:38:02.175Z,25.10
2022-08-02T07:39:00.366Z,25.01
2022-08-02T07:40:00.575Z,24.99
2022-08-02T07:41:00.714Z,25.18
2022-08-02T07:42:00.887Z,24.58
2022-08-02T07:43:04.096Z,24.48
2022-08-02T07:44:01.246Z,25.43
2022-08-02T07:45:01.427Z,23.49
2022-08-02T07:46:01.616Z,23.29
2022-08-02T07:47:01.757Z,23.49
2022-08-02T07:48:01.948Z,23.08
2022-08-02T07:49:02.185Z,23.17
2022-08-02T07:50:02.335Z,22.87
2022-08-02T07:51:02.489Z,22.86
2022-08-02T07:52:02.658Z,22.57
2022-08-02T07:53:02.862Z,22.19
2022-08-02T07:54:04.777Z,22.27
2022-08-02T07:55:03.208Z,22.08
2022-08-02T07:56:03.381Z,21.88
2022-08-02T07:57:03.560Z,22.36
2022-08-02T07:58:03.740Z,22.84
2022-08-02T07:59:03.929Z,22.26
2022-08-02T08:00:04.111Z,21.67
2022-08-02T08:01:04.354Z,21.96
2022-08-02T08:02:04.507Z,21.19
2022-08-02T08:03:04.651Z,22.15
2022-08-02T08:04:04.833Z,21.47
2022-08-02T08:05:05.019Z,20.97
2022-08-02T08:06:05.191Z,20.58
2022-08-02T08:07:05.383Z,20.87
2022-08-02T08:08:05.587Z,20.18
2022-08-02T08:09:05.743Z,20.09
2022-08-02T08:10:05.922Z,20.56
2022-08-02T08:11:06.114Z,19.79
2022-08-02T08:12:06.305Z,20.17
2022-08-02T08:13:06.495Z,20.17
2022-08-02T08:14:06.711Z,20.27
2022-08-02T08:15:06.857Z,20.27
2022-08-02T08:16:07.025Z,19.59
2022-08-02T08:17:07.219Z,19.68
2022-08-02T08:18:07.406Z,20.17
2022-08-02T08:19:07.587Z,19.96
2022-08-02T08:20:07.757Z,20.35
2022-08-02T08:21:07.956Z,19.77
2022-08-02T08:22:08.126Z,19.28
2022-08-02T08:23:08.326Z,19.47
2022-08-02T08:24:08.467Z,19.47
2022-08-02T08:25:08.668Z,19.09
2022-08-02T08:26:11.638Z,19.28
2022-08-02T08:27:09.998Z,19.08
2022-08-02T08:28:09.168Z,19.37
2022-08-02T08:29:09.329Z,18.79
2022-08-02T08:30:09.521Z,18.89
2022-08-02T08:31:09.697Z,18.99
2022-08-02T08:32:14.162Z,19.29
2022-08-02T08:33:11.060Z,19.30
2022-08-02T08:34:10.218Z,19.50
2022-08-02T08:35:10.389Z,19.81
2022-08-02T08:36:10.559Z,20.21
2022-08-02T08:37:18.306Z,20.83
2022-08-02T08:38:11.920Z,21.81
2022-08-02T08:39:11.082Z,22.23
2022-08-02T08:40:11.252Z,22.33
2022-08-02T08:41:11.451Z,22.74
2022-08-02T08:42:11.752Z,22.92
2022-08-02T08:43:11.800Z,22.83
2022-08-02T08:44:11.933Z,22.83
2022-08-02T08:45:12.122Z,22.82
2022-08-02T08:46:12.310Z,22.40
2022-08-02T08:47:12.483Z,22.38
2022-08-02T08:48:12.708Z,21.39
2022-08-02T08:49:12.875Z,21.08
2022-08-02T08:50:18.890Z,20.68
2022-08-02T08:51:14.183Z,20.48
2022-08-02T08:52:13.762Z,20.18
2022-08-02T08:53:13.838Z,19.89
2022-08-02T08:54:13.704Z,19.49
2022-08-02T08:55:13.885Z,19.49
2022-08-02T08:56:16.256Z,19.78
2022-08-02T08:57:14.222Z,19.77
2022-08-02T08:58:14.426Z,19.77
2022-08-02T08:59:14.625Z,19.85
2022-08-02T09:00:14.728Z,19.45
2022-08-02T09:01:14.994Z,18.98
2022-08-02T09:02:17.191Z,19.26
2022-08-02T09:03:16.294Z,18.77
2022-08-02T09:04:15.447Z,18.67
2022-08-02T09:05:15.637Z,18.38
2022-08-02T09:06:15.808Z,18.68
2022-08-02T09:07:15.998Z,18.77
2022-08-02T09:08:17.153Z,18.68
2022-08-02T09:09:16.359Z,19.06
2022-08-02T09:10:16.530Z,19.06
2022-08-02T09:11:16.725Z,18.77
2022-08-02T09:12:16.890Z,19.25
2022-08-02T09:13:39.157Z,19.35
2022-08-02T09:14:18.280Z,18.86
2022-08-02T09:15:17.438Z,18.95
2022-08-02T09:16:17.610Z,18.95
2022-08-02T09:17:17.823Z,18.95
2022-08-02T09:18:17.982Z,17.99
2022-08-02T09:19:18.251Z,17.98
2022-08-02T09:20:18.384Z,17.69
2022-08-02T09:21:18.544Z,18.07
2022-08-02T09:22:18.719Z,17.77
2022-08-02T09:23:18.902Z,17.58
2022-08-02T09:24:19.094Z,17.96
2022-08-02T09:25:19.272Z,18.15
2022-08-02T09:26:19.443Z,18.26
2022-08-02T09:27:19.633Z,18.15
2022-08-02T09:28:19.810Z,17.68
2022-08-02T09:29:20.005Z,17.79
2022-08-02T09:30:20.154Z,17.99
2022-08-02T09:31:20.361Z,18.29
2022-08-02T09:32:20.535Z,18.67
2022-08-02T09:33:20.715Z,19.15
2022-08-02T09:34:20.895Z,18.57
2022-08-02T09:35:21.075Z,18.66
2022-08-02T09:36:21.256Z,18.17
2022-08-02T09:37:21.434Z,18.35
2022-08-02T09:38:21.626Z,18.26
2022-08-02T09:39:21.816Z,18.15
2022-08-02T09:40:21.995Z,17.68
2022-08-02T09:41:22.168Z,18.63
2022-08-02T09:42:22.356Z,17.86
2022-08-02T09:43:23.540Z,17.96
2022-08-02T09:44:22.761Z,18.05
2022-08-02T09:45:22.898Z,17.95
2022-08-02T09:46:24.372Z,17.86
2022-08-02T09:47:23.277Z,18.52
2022-08-02T09:48:23.439Z,17.55
2022-08-02T09:49:23.717Z,17.74
2022-08-02T09:50:23.789Z,17.74
2022-08-02T09:51:23.968Z,17.65
2022-08-02T09:52:24.149Z,17.56
2022-08-02T09:53:25.327Z,17.17
2022-08-02T09:54:24.561Z,16.89
2022-08-02T09:55:24.701Z,17.07
2022-08-02T09:56:30.278Z,17.18
2022-08-02T09:57:26.051Z,17.66
2022-08-02T09:58:25.258Z,17.29
2022-08-02T09:59:25.432Z,17.37
2022-08-02T10:00:43.559Z,17.56
2022-08-02T10:01:34.178Z,17.74
2022-08-02T10:02:27.080Z,17.64
2022-08-02T10:03:31.081Z,17.06
2022-08-02T10:04:27.394Z,17.06
2022-08-02T10:05:26.523Z,17.33
2022-08-02T10:06:26.703Z,16.77
2022-08-02T10:07:26.881Z,16.66
2022-08-02T10:08:27.066Z,17.14
2022-08-02T10:09:27.263Z,16.96
2022-08-02T10:10:27.418Z,17.17
2022-08-02T10:11:27.596Z,17.76
2022-08-02T10:12:27.774Z,18.35
2022-08-02T10:13:27.953Z,18.43
2022-08-02T10:14:28.163Z,17.66
2022-08-02T10:15:28.324Z,17.76
2022-08-02T10:16:28.514Z,17.66
2022-08-02T10:17:28.685Z,18.16
2022-08-02T10:18:43.279Z,18.08
2022-08-02T10:20:02.288Z,18.70
2022-08-02T10:20:30.235Z,19.30
2022-08-02T10:21:29.386Z,20.00
2022-08-02T10:22:29.576Z,19.90
2022-08-02T10:23:29.750Z,20.70
2022-08-02T10:24:29.945Z,21.67
2022-08-02T10:25:30.120Z,21.68
2022-08-02T10:26:30.298Z,22.09
2022-08-02T10:27:43.298Z,22.22
2022-08-02T10:28:31.650Z,23.30
2022-08-02T10:29:30.838Z,23.35
2022-08-02T10:30:32.009Z,24.44
2022-08-02T10:31:31.168Z,25.92
2022-08-02T10:32:31.375Z,26.61
2022-08-02T10:33:31.505Z,26.14
2022-08-02T10:34:31.927Z,26.54
2022-08-02T10:35:31.859Z,26.46
2022-08-02T10:36:32.041Z,27.14
2022-08-02T10:37:32.220Z,26.68
2022-08-02T10:38:32.418Z,26.79
2022-08-02T10:39:32.579Z,27.29
2022-08-02T10:40:32.730Z,27.50
2022-08-02T10:41:32.900Z,29.07
2022-08-02T10:42:33.088Z,27.72
2022-08-02T10:43:33.260Z,28.12
2022-08-02T10:44:33.451Z,29.41
2022-08-02T10:45:33.627Z,29.13
2022-08-02T10:46:33.815Z,30.02
2022-08-02T10:47:33.980Z,29.73
2022-08-02T10:48:34.163Z,29.53
2022-08-02T10:49:39.877Z,29.83
2022-08-02T10:50:35.513Z,30.04
2022-08-02T10:51:34.718Z,30.23
2022-08-02T10:52:34.865Z,30.82
2022-08-02T10:53:35.042Z,31.03
2022-08-02T10:54:35.243Z,31.52
2022-08-02T10:55:35.413Z,31.13
2022-08-02T10:56:35.595Z,31.54
2022-08-02T10:57:35.754Z,31.93
2022-08-02T10:58:35.942Z,31.65
2022-08-02T10:59:36.304Z,31.94
2022-08-02T11:00:36.330Z,32.25
2022-08-02T11:01:38.567Z,31.57
2022-08-02T11:02:36.661Z,32.06
2022-08-02T11:03:39.406Z,32.56
2022-08-02T11:04:37.044Z,32.95
2022-08-02T11:05:42.769Z,32.37
2022-08-02T11:06:38.356Z,31.79
2022-08-02T11:07:37.513Z,32.38
2022-08-02T11:08:37.696Z,32.30
2022-08-02T11:09:37.906Z,32.69
2022-08-02T11:10:38.046Z,32.20
2022-08-02T11:11:53.554Z,32.20
2022-08-02T11:12:39.421Z,33.18
2022-08-02T11:13:38.607Z,33.49
2022-08-02T11:14:38.827Z,33.89
2022-08-02T11:15:38.957Z,33.10
2022-08-02T11:16:39.147Z,33.87
2022-08-02T11:17:39.327Z,34.06
2022-08-02T11:18:39.509Z,32.98
2022-08-02T11:19:39.667Z,32.59
2022-08-02T11:20:39.837Z,33.28
2022-08-02T11:21:40.020Z,33.67
2022-08-02T11:22:40.199Z,32.40
2022-08-02T11:23:44.722Z,31.90
2022-08-02T11:24:41.589Z,31.90
2022-08-02T11:26:03.278Z,32.98
2022-08-02T11:26:41.917Z,32.20
2022-08-02T11:27:41.099Z,32.20
2022-08-02T11:28:41.279Z,32.87
2022-08-02T11:29:41.471Z,33.07
2022-08-02T11:30:41.650Z,32.38
2022-08-02T11:31:41.830Z,31.89
2022-08-02T11:32:42.010Z,31.40
2022-08-02T11:33:42.190Z,31.10
2022-08-02T11:34:42.388Z,31.01
2022-08-02T11:35:42.530Z,31.10
2022-08-02T11:36:42.712Z,30.91
2022-08-02T11:37:42.891Z,30.62
2022-08-02T11:38:43.072Z,31.30
2022-08-02T11:39:43.272Z,31.40
2022-08-02T11:40:43.425Z,31.10
2022-08-02T11:41:46.416Z,31.20
2022-08-02T11:42:43.772Z,30.93
2022-08-02T11:43:43.952Z,31.51
2022-08-02T11:44:44.150Z,31.10
2022-08-02T11:45:44.293Z,30.71
2022-08-02T11:46:44.473Z,30.81
2022-08-02T11:47:44.645Z,31.22
2022-08-02T11:48:44.841Z,31.30
2022-08-02T11:49:45.073Z,31.50
2022-08-02T11:50:45.184Z,31.89
2022-08-02T11:51:45.384Z,32.87
2022-08-02T11:52:45.534Z,32.38
2022-08-02T11:53:45.713Z,32.28
2022-08-02T11:54:45.906Z,31.40
2022-08-02T11:55:46.047Z,32.28
2022-08-02T11:56:46.225Z,32.78
2022-08-02T11:58:04.456Z,31.99
2022-08-02T11:58:47.594Z,31.10
2022-08-02T11:59:46.795Z,30.91
2022-08-02T12:00:46.944Z,30.91
2022-08-02T12:01:47.126Z,30.91
2022-08-02T12:02:47.354Z,31.01
2022-08-02T12:03:47.580Z,30.81
2022-08-02T12:04:47.676Z,30.71
2022-08-02T12:06:05.617Z,30.42
2022-08-02T12:06:49.037Z,30.62
2022-08-02T12:07:48.228Z,30.81
2022-08-02T12:08:54.457Z,30.71
2022-08-02T12:09:49.578Z,31.30
2022-08-02T12:10:48.750Z,31.40
2022-08-02T12:11:48.920Z,31.79
2022-08-02T12:12:49.131Z,31.50
2022-08-02T12:13:57.307Z,30.71
2022-08-02T12:14:50.474Z,30.22
2022-08-02T12:15:49.618Z,30.62
2022-08-02T12:16:49.808Z,30.91
2022-08-02T12:17:49.991Z,31.10
2022-08-02T12:18:50.169Z,30.91
2022-08-02T12:19:50.359Z,30.62
2022-08-02T12:20:50.509Z,30.81
2022-08-02T12:21:50.701Z,30.62
2022-08-02T12:22:50.881Z,31.01
2022-08-02T12:24:00.285Z,31.40
2022-08-02T12:24:52.262Z,30.81
2022-08-02T12:25:51.409Z,30.12
2022-08-02T12:26:51.589Z,30.52
2022-08-02T12:27:53.417Z,30.81
2022-08-02T12:28:51.970Z,31.20
2022-08-02T12:29:58.137Z,31.20
2022-08-02T12:30:53.312Z,31.01
2022-08-02T12:31:56.515Z,31.01
2022-08-02T12:32:53.682Z,31.40
2022-08-02T12:33:52.872Z,32.09
2022-08-02T12:34:53.093Z,31.89
2022-08-02T12:35:53.226Z,31.89
2022-08-02T12:36:53.413Z,31.50
2022-08-02T12:37:53.593Z,30.91
2022-08-02T12:38:53.780Z,31.22
2022-08-02T12:39:53.974Z,31.12
2022-08-02T12:40:54.153Z,31.30
2022-08-02T12:41:54.742Z,31.89
2022-08-02T12:42:54.513Z,31.50
2022-08-02T12:43:54.704Z,30.91
2022-08-02T12:44:54.905Z,30.22
2022-08-02T12:45:55.055Z,30.12
2022-08-02T12:46:55.235Z,30.02
2022-08-02T12:47:55.414Z,30.32
2022-08-02T12:49:17.563Z,30.32
2022-08-02T12:49:56.858Z,30.52
2022-08-02T12:50:55.995Z,30.60
2022-08-02T12:52:00.984Z,30.60
2022-08-02T12:52:57.376Z,30.30
2022-08-02T12:53:58.876Z,30.40
2022-08-02T12:54:56.735Z,30.60